Time;durP1;ratioP1;P1;durP2;ratioP2;P2;SDS_P1;SDS_P2;PMS_P1;PMS_P2;Temp;Humidity;BMP_temperature;BMP_pressure;BME280_temperature;BME280_humidity;BME280_pressure;Samples;Min_cycle;Max_cycle;Signal;HPM_P1;HPM_P2
2023/06/14 00:02:09;;;;;;;;;15.33;14.33;;;;;22.52;51.50;100943.84;5096020;27;45293;-79
2023/06/14 00:04:39;;;;;;;;;14.67;12.33;;;;;22.74;51.98;100984.81;5063047;28;45378;-79
2023/06/14 00:07:08;;;;;;;;;15.00;13.67;;;;;22.03;53.03;100878.41;5059555;27;45665;-79
2023/06/14 00:09:34;;;;;;;;;16.00;14.67;;;;;22.37;52.49;100948.84;5082782;27;45403;-79
2023/06/14 00:12:06;;;;;;;;;14.67;11.00;;;;;22.47;52.04;100967.69;5085023;27;45359;-78
2023/06/14 00:14:41;;;;;;;;;12.67;12.67;;;;;22.11;51.78;100924.34;5083807;27;45463;-79
2023/06/14 00:17:30;;;;;;;;;15.67;14.67;;;;;22.17;53.53;100948.03;5061100;28;45468;-79
2023/06/14 00:20:06;;;;;;;;;23.00;16.33;;;;;21.85;53.08;100907.03;5048646;28;45576;-79
2023/06/14 00:22:51;;;;;;;;;12.67;12.67;;;;;21.94;51.54;100932.28;5038725;28;45710;-80
2023/06/14 00:25:28;;;;;;;;;13.33;13.33;;;;;21.94;53.55;100941.22;5071172;28;45511;-79
2023/06/14 00:28:04;;;;;;;;;21.00;14.33;;;;;21.69;54.94;100902.19;5057445;28;45526;-79
2023/06/14 00:30:34;;;;;;;;;19.67;15.33;;;;;21.64;54.73;100923.31;5058415;28;46223;-79
2023/06/14 00:33:04;;;;;;;;;17.33;16.00;;;;;21.59;54.82;100927.44;5060618;28;45362;-79
2023/06/14 00:35:30;;;;;;;;;14.33;14.33;;;;;22.12;55.37;101030.28;5051699;28;45475;-78
2023/06/14 00:37:55;;;;;;;;;13.00;13.00;;;;;21.81;55.67;100973.78;5080597;28;45390;-79
2023/06/14 00:40:21;;;;;;;;;17.33;16.33;;;;;21.59;57.26;100940.88;5048391;28;46116;-79
2023/06/14 00:42:54;;;;;;;;;19.33;16.67;;;;;21.37;56.67;100916.91;5061705;28;45490;-79
2023/06/14 00:45:22;;;;;;;;;18.00;14.33;;;;;21.63;57.17;100980.81;5064571;28;45262;-78
2023/06/14 00:47:55;;;;;;;;;16.67;15.33;;;;;21.39;57.34;100972.28;5058006;28;45584;-79
2023/06/14 00:50:36;;;;;;;;;15.67;15.67;;;;;21.63;58.11;101002.34;5069794;28;45427;-79
2023/06/14 00:53:04;;;;;;;;;18.67;12.67;;;;;21.12;58.57;100948.69;5054014;28;45282;-78
2023/06/14 00:55:30;;;;;;;;;15.33;15.33;;;;;21.53;58.58;101032.97;5069610;28;45373;-79
2023/06/14 00:57:55;;;;;;;;;13.67;13.67;;;;;20.81;60.06;100898.56;5066251;28;45420;-79
2023/06/14 01:00:22;;;;;;;;;17.33;16.00;;;;;20.91;59.25;100955.09;5068326;28;45461;-79
2023/06/14 01:02:47;;;;;;;;;13.00;13.00;;;;;20.89;61.10;100957.91;5063625;28;45371;-79
2023/06/14 01:05:23;;;;;;;;;16.33;16.33;;;;;20.84;60.22;100959.31;5068530;28;45428;-79
2023/06/14 01:08:40;;;;;;;;;13.00;12.67;;;;;21.14;60.95;101023.84;5074243;28;45576;-79
2023/06/14 01:11:18;;;;;;;;;14.33;13.67;;;;;21.00;62.08;101008.91;5046287;28;46200;-79
2023/06/14 01:13:46;;;;;;;;;15.67;14.67;;;;;20.98;62.36;101018.94;5077441;27;45279;-79
2023/06/14 01:16:11;;;;;;;;;19.00;15.00;;;;;20.90;63.03;101015.22;5064145;28;45314;-79
2023/06/14 01:18:37;;;;;;;;;14.67;12.67;;;;;20.87;63.55;101019.03;5058335;28;45384;-79
2023/06/14 01:21:05;;;;;;;;;19.33;18.00;;;;;20.81;63.98;101013.34;5084698;27;47952;-79
2023/06/14 01:23:34;;;;;;;;;16.00;14.67;;;;;20.75;64.85;101014.69;5071906;28;45214;-79
2023/06/14 01:26:02;;;;;;;;;17.33;16.33;;;;;20.72;65.15;101020.34;5081680;27;45358;-79
2023/06/14 01:28:31;;;;;;;;;21.00;17.00;;;;;20.61;64.68;101009.69;5080714;27;45541;-79
2023/06/14 01:31:00;;;;;;;;;15.67;15.00;;;;;20.58;64.88;101013.47;5061845;28;45527;-79
2023/06/14 01:33:28;;;;;;;;;17.67;16.33;;;;;20.55;66.11;101013.72;5057971;28;45383;-79
2023/06/14 01:35:56;;;;;;;;;21.33;18.33;;;;;20.53;65.49;101025.59;5088076;27;45395;-79
2023/06/14 01:38:26;;;;;;;;;17.67;17.33;;;;;20.36;66.04;101002.84;5078099;28;45462;-79
2023/06/14 01:40:54;;;;;;;;;14.67;13.67;;;;;20.43;66.45;101014.78;5079141;28;46305;-79
2023/06/14 01:43:20;;;;;;;;;18.67;15.67;;;;;20.24;66.84;100995.78;5081157;27;45401;-79
2023/06/14 01:45:48;;;;;;;;;19.33;18.33;;;;;20.20;67.37;100991.66;5080337;28;45364;-79
2023/06/14 01:48:14;;;;;;;;;11.67;10.67;;;;;20.19;68.26;101004.22;5086582;27;45492;-79
2023/06/14 01:50:40;;;;;;;;;18.00;16.33;;;;;20.21;68.40;101013.03;5078210;28;45397;-79
2023/06/14 01:53:08;;;;;;;;;20.00;18.33;;;;;20.18;68.35;101023.16;5079402;28;45367;-79
2023/06/14 01:55:37;;;;;;;;;17.00;16.67;;;;;20.03;69.39;101002.94;5080528;27;45355;-79
2023/06/14 01:58:03;;;;;;;;;16.33;15.67;;;;;20.10;69.01;101026.47;5082649;27;45372;-79
2023/06/14 02:00:28;;;;;;;;;20.33;17.00;;;;;20.05;69.08;101020.66;5063165;28;45366;-80
2023/06/14 02:02:53;;;;;;;;;19.33;19.00;;;;;20.04;70.15;101018.09;5096084;27;45302;-78
2023/06/14 02:05:19;;;;;;;;;19.67;17.00;;;;;19.91;71.20;101003.97;5076796;28;45261;-79
2023/06/14 02:07:46;;;;;;;;;18.33;18.00;;;;;19.88;71.41;101010.47;5076607;27;45671;-79
2023/06/14 02:10:11;;;;;;;;;19.67;19.67;;;;;19.82;71.82;101000.22;5089785;27;45522;-79
2023/06/14 02:12:37;;;;;;;;;19.33;18.67;;;;;19.84;72.24;101005.44;5059504;28;45953;-79
2023/06/14 02:15:03;;;;;;;;;17.33;17.33;;;;;19.89;73.33;101022.06;5087925;27;45379;-79
2023/06/14 02:17:29;;;;;;;;;21.67;20.67;;;;;19.84;72.88;101013.50;5084569;27;45359;-79
2023/06/14 02:19:55;;;;;;;;;22.00;21.67;;;;;19.95;74.40;101027.75;5078447;28;46085;-79
2023/06/14 02:22:21;;;;;;;;;23.00;23.00;;;;;19.94;72.71;101031.41;5091195;27;45443;-80
2023/06/14 02:24:47;;;;;;;;;26.67;22.67;;;;;19.89;72.91;101014.00;5081589;27;45369;-80
2023/06/14 02:27:12;;;;;;;;;26.00;25.00;;;;;19.98;74.62;101035.56;5086560;27;45535;-79
2023/06/14 02:29:38;;;;;;;;;25.00;21.67;;;;;19.92;74.12;101024.47;5097103;27;45295;-79
2023/06/14 02:32:10;;;;;;;;;26.00;24.67;;;;;19.90;74.89;101021.06;5070078;27;45324;-79
2023/06/14 02:34:35;;;;;;;;;21.33;18.67;;;;;19.93;75.59;101031.53;5073279;28;45430;-80
2023/06/14 02:37:02;;;;;;;;;22.00;20.67;;;;;19.89;76.80;101032.78;5078402;28;53252;-79
2023/06/14 02:39:29;;;;;;;;;24.33;21.00;;;;;19.77;76.54;101022.06;5087140;27;46198;-79
2023/06/14 02:41:54;;;;;;;;;28.33;26.00;;;;;19.78;77.67;101033.66;5073776;27;45444;-79
2023/06/14 02:44:23;;;;;;;;;22.00;22.00;;;;;19.68;77.99;101021.97;5078310;28;45253;-79
2023/06/14 02:46:49;;;;;;;;;26.33;23.67;;;;;19.56;78.24;101013.09;5079804;27;45500;-79
2023/06/14 02:49:14;;;;;;;;;24.00;23.00;;;;;19.60;79.08;101027.13;5066937;27;46905;-79
2023/06/14 02:51:40;;;;;;;;;23.33;23.00;;;;;19.55;80.05;101027.47;5092480;27;45473;-79
2023/06/14 02:54:05;;;;;;;;;23.33;23.33;;;;;19.43;80.70;101024.94;5080279;27;45416;-79
2023/06/14 02:56:30;;;;;;;;;22.67;21.67;;;;;19.40;81.50;101030.53;5071737;28;45557;-79
2023/06/14 02:58:57;;;;;;;;;22.00;19.67;;;;;19.39;81.20;101037.72;5093840;27;46017;-79
2023/06/14 03:01:23;;;;;;;;;24.33;20.67;;;;;19.35;80.92;101035.38;5076808;27;45284;-79
2023/06/14 03:03:48;;;;;;;;;23.33;21.00;;;;;19.33;81.93;101042.72;5090428;27;45286;-79
2023/06/14 03:06:14;;;;;;;;;20.25;17.75;;;;;19.29;82.69;101043.94;5088456;27;45434;-79
2023/06/14 03:08:41;;;;;;;;;24.00;22.00;;;;;19.17;82.10;101032.34;5079151;27;45971;-79
2023/06/14 03:11:07;;;;;;;;;24.00;23.33;;;;;19.19;82.86;101052.72;5060448;28;45461;-79
2023/06/14 03:13:34;;;;;;;;;24.00;23.00;;;;;19.13;83.17;101047.84;5059827;28;45384;-79
2023/06/14 03:16:02;;;;;;;;;21.00;21.00;;;;;19.12;83.50;101050.63;5082248;27;45436;-79
2023/06/14 03:18:30;;;;;;;;;28.50;27.50;;;;;18.99;84.36;101034.66;5068364;28;46184;-78
2023/06/14 03:20:56;;;;;;;;;25.00;24.33;;;;;18.86;85.22;101023.19;5092267;27;45510;-78
2023/06/14 03:23:22;;;;;;;;;23.33;23.33;;;;;18.95;85.61;101051.94;5089612;27;45321;-79
2023/06/14 03:25:48;;;;;;;;;23.00;21.00;;;;;18.93;85.83;101063.75;5082772;27;45504;-79
2023/06/14 03:28:13;;;;;;;;;27.33;26.00;;;;;18.89;86.76;101064.97;5061802;27;47419;-79
2023/06/14 03:30:38;;;;;;;;;23.67;22.00;;;;;18.76;86.60;101048.97;5088600;27;45442;-79
2023/06/14 03:33:04;;;;;;;;;22.00;21.00;;;;;18.83;87.21;101066.31;5075108;27;51886;-79
2023/06/14 03:35:30;;;;;;;;;21.33;19.67;;;;;18.77;86.50;101064.09;5081535;27;45470;-79
2023/06/14 03:37:55;;;;;;;;;27.67;23.67;;;;;18.72;87.18;101058.22;5071791;27;45517;-79
2023/06/14 03:40:23;;;;;;;;;23.67;21.00;;;;;18.75;87.28;101084.78;5069741;28;45390;-79
2023/06/14 03:42:48;;;;;;;;;26.00;24.67;;;;;18.71;86.50;101080.66;5087812;27;45347;-79
2023/06/14 03:45:14;;;;;;;;;24.00;23.00;;;;;18.61;87.63;101072.47;5102657;27;47561;-79
2023/06/14 03:47:39;;;;;;;;;25.00;22.00;;;;;18.59;87.70;101074.38;5076142;27;45293;-79
2023/06/14 03:50:05;;;;;;;;;29.33;26.67;;;;;18.58;88.29;101079.88;5090611;27;45228;-79
2023/06/14 03:52:31;;;;;;;;;26.33;23.00;;;;;18.52;88.42;101075.81;5093759;27;45389;-79
2023/06/14 03:54:56;;;;;;;;;25.00;23.33;;;;;18.59;88.38;101090.47;5079791;27;45376;-79
2023/06/14 03:57:23;;;;;;;;;27.67;24.67;;;;;18.55;88.09;101085.47;5070109;27;48278;-79
2023/06/14 03:59:49;;;;;;;;;24.00;24.00;;;;;18.41;89.01;101066.88;5102442;27;45418;-79
2023/06/14 04:02:15;;;;;;;;;25.67;24.00;;;;;18.49;90.13;101088.56;5086009;27;45368;-79
2023/06/14 04:04:43;;;;;;;;;21.33;21.33;;;;;18.39;89.03;101074.19;5073957;28;45482;-79
2023/06/14 04:07:09;;;;;;;;;26.67;25.67;;;;;18.49;89.46;101089.41;5065367;28;45672;-78
2023/06/14 04:09:35;;;;;;;;;22.00;20.75;;;;;18.41;90.27;101081.13;5082386;27;45366;-79
2023/06/14 04:12:00;;;;;;;;;31.00;24.50;;;;;18.32;89.13;101070.25;5055845;28;45382;-79
2023/06/14 04:14:25;;;;;;;;;22.67;22.33;;;;;18.51;88.27;101103.59;5078950;28;45579;-79
2023/06/14 04:16:51;;;;;;;;;24.67;23.67;;;;;18.40;90.67;101083.91;5080063;28;52505;-79
2023/06/14 04:19:16;;;;;;;;;27.67;24.67;;;;;18.48;88.83;101087.72;5075359;27;45612;-78
2023/06/14 04:21:41;;;;;;;;;21.33;21.33;;;;;18.52;89.30;101107.13;5091511;27;45345;-79
2023/06/14 04:24:13;;;;;;;;;26.50;25.75;;;;;18.48;88.47;101100.25;5084406;27;45425;-79
2023/06/14 04:26:40;;;;;;;;;19.00;18.00;;;;;18.55;89.30;101120.28;5082123;27;46197;-79
2023/06/14 04:29:06;;;;;;;;;27.00;27.00;;;;;18.58;85.00;101118.25;5065660;28;45408;-79
2023/06/14 04:31:37;;;;;;;;;26.33;24.00;;;;;18.65;87.15;101119.47;5090891;27;45490;-79
2023/06/14 04:34:05;;;;;;;;;27.33;26.00;;;;;18.74;88.05;101123.28;5069191;27;45327;-79
2023/06/14 04:36:37;;;;;;;;;24.33;23.67;;;;;18.61;88.10;101099.25;5097735;27;46180;-78
2023/06/14 04:39:06;;;;;;;;;27.33;26.67;;;;;18.77;84.59;101124.88;5075900;27;45348;-79
2023/06/14 04:41:31;;;;;;;;;30.00;28.00;;;;;18.76;87.79;101121.34;5101529;27;45416;-79
2023/06/14 04:44:01;;;;;;;;;25.33;24.67;;;;;18.83;88.39;101137.81;5066637;27;45560;-78
2023/06/14 04:46:30;;;;;;;;;25.00;25.00;;;;;18.80;88.16;101125.50;5078500;27;45508;-79
2023/06/14 04:48:56;;;;;;;;;28.33;25.33;;;;;18.90;84.29;101126.50;5075392;28;45402;-78
2023/06/14 04:51:29;;;;;;;;;26.33;23.00;;;;;18.82;86.71;101104.78;5054031;28;45487;-79
2023/06/14 04:53:56;;;;;;;;;28.33;24.00;;;;;18.95;86.91;101126.13;5075422;27;45360;-79
2023/06/14 04:56:23;;;;;;;;;24.00;22.33;;;;;18.95;86.69;101123.47;5088644;27;46022;-79
2023/06/14 04:58:48;;;;;;;;;24.67;23.33;;;;;19.07;85.13;101139.47;5066945;28;45328;-79
2023/06/14 05:01:13;;;;;;;;;27.67;24.67;;;;;19.08;86.97;101127.75;5092562;27;45390;-79
2023/06/14 05:03:39;;;;;;;;;25.67;25.00;;;;;19.09;87.88;101121.44;5069726;28;52432;-79
2023/06/14 05:06:04;;;;;;;;;24.33;22.67;;;;;19.06;85.81;101110.94;5084771;27;57674;-79
2023/06/14 05:08:29;;;;;;;;;24.50;22.75;;;;;19.16;86.85;101129.84;5060129;28;45347;-79
2023/06/14 05:10:55;;;;;;;;;27.33;25.33;;;;;19.18;88.32;101120.72;5082037;27;45449;-78
2023/06/14 05:13:22;;;;;;;;;29.33;26.00;;;;;19.27;86.71;101123.66;5080179;28;46737;-79
2023/06/14 05:15:48;;;;;;;;;21.67;21.67;;;;;19.34;87.86;101132.94;5063041;27;47246;-79
2023/06/14 05:18:14;;;;;;;;;28.33;25.33;;;;;19.40;88.55;101129.78;5090786;27;45378;-79
2023/06/14 05:20:41;;;;;;;;;28.00;25.00;;;;;19.49;86.78;101134.44;5065742;28;45405;-79
2023/06/14 05:23:07;;;;;;;;;27.67;24.67;;;;;19.58;87.89;101133.72;5098063;27;45478;-79
2023/06/14 05:25:32;;;;;;;;;25.33;25.00;;;;;19.61;87.82;101128.09;5065701;28;47168;-79
2023/06/14 05:27:57;;;;;;;;;26.50;25.00;;;;;19.53;86.09;101109.09;5066713;28;45635;-79
2023/06/14 05:30:23;;;;;;;;;29.00;24.33;;;;;19.81;86.47;101134.56;5072915;27;45284;-79
2023/06/14 05:32:48;;;;;;;;;30.33;28.33;;;;;19.85;84.48;101136.88;5104353;27;45280;-79
2023/06/14 05:35:14;;;;;;;;;25.67;21.67;;;;;19.97;85.25;101143.94;5077485;27;45700;-80
2023/06/14 05:37:39;;;;;;;;;28.33;26.33;;;;;20.05;85.05;101141.50;5076003;27;45422;-79
2023/06/14 05:40:05;;;;;;;;;30.67;27.00;;;;;20.10;83.44;101141.97;5061608;28;45417;-80
2023/06/14 05:42:31;;;;;;;;;34.00;32.00;;;;;20.11;83.16;101134.75;5079494;28;45696;-79
2023/06/14 05:44:57;;;;;;;;;28.33;27.67;;;;;20.27;82.15;101149.53;5064204;27;48236;-79
2023/06/14 05:47:22;;;;;;;;;29.00;27.00;;;;;20.38;80.34;101145.13;5079628;27;45330;-79
2023/06/14 05:49:48;;;;;;;;;30.33;27.00;;;;;20.37;80.55;101138.03;5092440;27;45626;-80
2023/06/14 05:52:13;;;;;;;;;29.67;28.33;;;;;20.56;82.34;101143.56;5084660;27;45288;-79
2023/06/14 05:54:38;;;;;;;;;34.33;30.00;;;;;20.51;77.04;101118.94;5070534;28;47557;-79
2023/06/14 05:57:06;;;;;;;;;38.00;26.50;;;;;20.71;81.10;101131.56;5093066;27;45318;-79
2023/06/14 05:59:31;;;;;;;;;27.67;26.67;;;;;20.72;71.66;101126.03;5079532;28;45506;-80
2023/06/14 06:01:57;;;;;;;;;33.33;28.67;;;;;20.89;72.66;101140.75;5062655;27;45312;-80
2023/06/14 06:04:23;;;;;;;;;27.00;25.00;;;;;21.09;70.66;101160.56;5056522;28;45568;-80
2023/06/14 06:06:48;;;;;;;;;35.33;31.67;;;;;21.10;70.78;101143.47;5087528;27;45361;-80
2023/06/14 06:09:16;;;;;;;;;27.33;27.33;;;;;21.11;73.07;101131.72;5088052;27;45446;-83
2023/06/14 06:11:42;;;;;;;;;35.33;31.00;;;;;21.30;73.80;101159.59;5077417;27;45482;-81
2023/06/14 06:14:07;;;;;;;;;33.67;29.00;;;;;21.46;70.14;101158.28;5072223;28;45235;-81
2023/06/14 06:16:33;;;;;;;;;33.00;29.33;;;;;21.53;71.03;101164.84;5061300;28;45364;-82
2023/06/14 06:18:59;;;;;;;;;34.33;31.33;;;;;21.65;70.17;101175.41;5086280;27;45355;-82
2023/06/14 06:21:24;;;;;;;;;35.67;34.33;;;;;21.73;73.30;101174.69;5080866;27;45309;-82
2023/06/14 06:23:50;;;;;;;;;29.67;27.33;;;;;21.77;67.53;101160.84;5092412;27;45543;-83
2023/06/14 06:26:15;;;;;;;;;28.67;26.33;;;;;21.90;68.23;101171.41;5078046;28;45283;-84
2023/06/14 06:28:40;;;;;;;;;23.33;21.00;;;;;21.79;66.80;101139.19;5055610;27;45232;-85
2023/06/14 06:31:06;;;;;;;;;24.00;21.67;;;;;22.08;62.78;101168.94;5083884;27;45261;-84
2023/06/14 06:33:31;;;;;;;;;24.33;21.33;;;;;22.16;63.45;101175.31;5066901;27;47862;-85
2023/06/14 06:35:56;;;;;;;;;22.00;21.00;;;;;22.25;63.84;101166.41;5066745;28;50786;-85
2023/06/14 06:38:22;;;;;;;;;17.00;14.00;;;;;22.32;59.94;101174.78;5077956;27;45435;-85
2023/06/14 06:40:47;;;;;;;;;19.00;15.33;;;;;22.42;56.45;101177.50;5079303;27;45698;-83
2023/06/14 06:43:17;;;;;;;;;18.33;17.33;;;;;22.34;58.80;101145.88;5073672;27;45449;-82
2023/06/14 06:45:42;;;;;;;;;12.00;12.00;;;;;22.49;55.06;101165.19;5060060;28;47351;-82
2023/06/14 06:48:10;;;;;;;;;21.00;18.00;;;;;22.71;54.34;101178.44;5078955;27;45257;-83
2023/06/14 06:50:35;;;;;;;;;13.67;13.67;;;;;22.80;53.71;101183.84;5089158;27;45667;-82
2023/06/14 06:53:01;;;;;;;;;19.00;17.67;;;;;22.90;53.13;101180.28;5073393;28;45423;-83
2023/06/14 06:55:26;;;;;;;;;16.33;16.33;;;;;22.96;54.68;101185.97;5052035;28;45598;-83
2023/06/14 06:57:53;;;;;;;;;18.00;18.00;;;;;23.09;51.71;101188.38;5075332;28;45479;-82
2023/06/14 07:00:19;;;;;;;;;13.00;13.00;;;;;23.12;52.50;101175.44;5063317;27;45703;-82
2023/06/14 07:02:45;;;;;;;;;18.67;18.00;;;;;23.28;52.90;101183.81;5062507;28;47361;-82
2023/06/14 07:05:11;;;;;;;;;16.67;15.33;;;;;23.40;51.49;101189.03;5081351;27;45495;-82
2023/06/14 07:07:36;;;;;;;;;20.67;18.00;;;;;23.47;52.84;101187.47;5090185;27;45382;-82
2023/06/14 07:10:04;;;;;;;;;12.00;11.67;;;;;23.60;51.34;101183.47;5089251;27;45458;-82
2023/06/14 07:12:30;;;;;;;;;16.00;15.67;;;;;23.74;50.47;101193.81;5083090;27;45927;-82
2023/06/14 07:14:57;;;;;;;;;17.33;17.33;;;;;23.89;51.84;101199.56;5066226;28;45453;-82
2023/06/14 07:17:22;;;;;;;;;14.00;13.00;;;;;23.96;52.12;101192.56;5070607;27;45357;-82
2023/06/14 07:19:48;;;;;;;;;17.00;15.33;;;;;23.98;49.26;101171.69;5095652;27;45475;-82
2023/06/14 07:22:13;;;;;;;;;17.00;14.00;;;;;24.14;49.46;101185.44;5087183;27;45704;-83
2023/06/14 07:24:40;;;;;;;;;21.00;17.00;;;;;24.32;46.95;101193.56;5092942;27;49889;-82
2023/06/14 07:27:19;;;;;;;;;16.00;15.00;;;;;24.47;46.70;101210.13;5079200;27;45410;-83
2023/06/14 07:29:46;;;;;;;;;14.33;13.67;;;;;24.57;46.78;101214.50;5071771;28;45520;-79
2023/06/14 07:35:41;;;;;;;;;15.00;15.00;;;;;24.40;43.42;101168.47;5073918;28;45418;-79
2023/06/14 07:38:22;;;;;;;;;15.00;15.00;;;;;24.98;44.88;101234.72;5057332;27;45322;-78
2023/06/14 07:41:02;;;;;;;;;12.33;12.33;;;;;24.59;43.28;101152.13;5068430;27;45724;-78
2023/06/14 07:44:11;;;;;;;;;15.67;13.67;;;;;25.13;45.70;101207.97;5051165;28;45615;-79
2023/06/14 07:47:44;;;;;;;;;16.00;13.33;;;;;25.02;44.52;101176.56;5062195;28;45272;-79
2023/06/14 07:50:33;;;;;;;;;;;;;;;;;;;;;
2023/06/14 07:57:04;;;;;;;;;16.00;12.67;;;;;25.40;43.65;101175.31;5072240;27;46935;-79
2023/06/14 07:59:39;;;;;;;;;13.67;12.67;;;;;25.94;42.37;101231.09;5085708;27;45433;-79
2023/06/14 08:02:25;;;;;;;;;14.67;13.67;;;;;25.75;41.11;101179.84;5077701;27;45334;-79
2023/06/14 08:05:17;;;;;;;;;13.00;13.00;;;;;26.20;42.12;101231.94;5060341;28;45609;-79
2023/06/14 08:08:06;;;;;;;;;13.33;13.33;;;;;26.15;38.74;101195.41;5043715;28;46862;-79
2023/06/14 08:11:12;;;;;;;;;14.67;13.00;;;;;25.95;40.75;101145.19;5061427;28;45422;-78
2023/06/14 08:13:55;;;;;;;;;12.33;12.33;;;;;26.40;41.13;101203.53;5059878;28;45353;-78
2023/06/14 08:16:32;;;;;;;;;14.67;14.67;;;;;26.50;41.66;101186.25;5054572;28;45356;-78
2023/06/14 08:18:58;;;;;;;;;16.67;13.00;;;;;26.96;40.10;101233.72;5075120;28;45275;-78
2023/06/14 08:21:33;;;;;;;;;13.00;12.33;;;;;27.08;39.16;101244.06;5054163;27;45309;-78
2023/06/14 08:24:31;;;;;;;;;13.00;11.33;;;;;26.93;39.58;101181.44;5064416;28;45316;-78
2023/06/14 08:27:03;;;;;;;;;10.33;10.33;;;;;27.11;38.62;101185.84;5046045;28;45490;-78
2023/06/14 08:30:07;;;;;;;;;13.00;12.00;;;;;27.05;38.26;101154.81;5072060;27;45323;-78
2023/06/14 08:32:33;;;;;;;;;12.33;10.00;;;;;27.21;38.85;101146.63;5071379;28;45490;-78
2023/06/14 08:38:53;;;;;;;;;14.00;12.00;;;;;27.99;38.28;101238.41;5058282;27;45673;-78
2023/06/14 08:45:17;;;;;;;;;17.33;14.33;;;;;28.32;37.33;101235.44;5073318;27;45535;-78
2023/06/14 08:48:11;;;;;;;;;13.67;13.00;;;;;28.05;37.49;101181.44;5077807;27;45454;-78
2023/06/14 08:50:45;;;;;;;;;12.67;11.67;;;;;27.92;37.88;101157.53;5060524;27;45573;-78
2023/06/14 08:53:20;;;;;;;;;17.33;16.00;;;;;27.99;38.16;101154.09;5062650;28;45515;-78
2023/06/14 08:55:54;;;;;;;;;13.67;13.67;;;;;28.50;36.38;101221.53;5071376;27;45419;-78
2023/06/14 08:58:20;;;;;;;;;12.33;12.33;;;;;28.72;37.24;101253.47;5057200;28;45313;-78
2023/06/14 09:00:45;;;;;;;;;14.67;12.33;;;;;28.49;36.29;101183.63;5061065;27;45615;-78
2023/06/14 09:03:20;;;;;;;;;14.67;14.33;;;;;28.85;36.77;101226.50;5074167;28;45656;-78
2023/06/14 09:05:54;;;;;;;;;17.67;15.33;;;;;28.69;37.41;101190.34;5062707;27;45385;-78
2023/06/14 09:11:58;;;;;;;;;14.33;13.00;;;;;28.99;35.50;101200.34;5075166;28;45596;-78
2023/06/14 09:14:59;;;;;;;;;12.67;12.00;;;;;29.43;35.17;101238.66;5075036;27;48101;-78
2023/06/14 09:17:49;;;;;;;;;14.00;13.00;;;;;29.32;36.11;101195.47;5057958;28;45324;-78
2023/06/14 09:20:54;;;;;;;;;14.00;13.33;;;;;29.62;35.57;101223.66;5091883;27;45344;-78
2023/06/14 09:23:57;;;;;;;;;11.67;11.33;;;;;29.92;36.09;101247.22;5081244;27;45488;-78
2023/06/14 09:26:38;;;;;;;;;13.33;13.33;;;;;29.85;33.97;101214.41;5086256;27;45525;-78
2023/06/14 09:29:34;;;;;;;;;;;;;;;;;;;;;
2023/06/14 09:32:21;;;;;;;;;13.33;12.33;;;;;29.98;32.49;101197.38;5073871;27;67924;-78
2023/06/14 09:34:47;;;;;;;;;12.33;12.33;;;;;29.84;31.36;101179.16;5086286;27;45347;-78
2023/06/14 09:37:34;;;;;;;;;14.00;12.00;;;;;30.36;30.87;101239.91;5063712;28;47162;-78
2023/06/14 09:40:12;;;;;;;;;15.67;11.00;;;;;30.47;29.83;101244.88;5068342;27;45526;-78
2023/06/14 09:43:19;;;;;;;;;10.00;10.00;;;;;30.29;31.23;101219.00;5085592;27;45528;-78
2023/06/14 09:49:00;;;;;;;;;;;;;;;;;;;;;
2023/06/14 09:54:52;;;;;;;;;10.33;10.33;;;;;30.54;27.58;101201.28;5055105;28;45553;-78
2023/06/14 10:00:38;;;;;;;;;12.67;9.00;;;;;30.51;29.48;101190.75;5040995;28;46205;-78
2023/06/14 10:03:28;;;;;;;;;13.33;12.00;;;;;30.62;29.87;101206.63;5036096;28;45489;-78
2023/06/14 10:06:46;;;;;;;;;;;;;;;;;;;;;
2023/06/14 10:09:34;;;;;;;;;12.00;9.67;;;;;30.88;29.30;101225.19;5027259;27;73904;-79
2023/06/14 10:12:15;;;;;;;;;13.00;10.33;;;;;30.92;28.96;101210.94;5065222;27;45359;-79
2023/06/14 10:14:41;;;;;;;;;11.00;11.00;;;;;30.83;27.69;101179.31;5079646;27;45305;-78
2023/06/14 10:17:23;;;;;;;;;8.33;8.00;;;;;30.88;29.41;101176.03;5055990;28;45477;-79
2023/06/14 10:20:09;;;;;;;;;9.33;9.33;;;;;31.51;28.82;101249.00;5029204;28;45722;-79
2023/06/14 10:22:59;;;;;;;;;;;;;;;;;;;;;
2023/06/14 10:26:09;;;;;;;;;12.33;10.33;;;;;31.27;28.55;101189.22;5075433;28;72384;-78
2023/06/14 10:29:34;;;;;;;;;;;;;;;;;;;;;
2023/06/14 10:32:07;;;;;;;;;9.67;9.00;;;;;31.62;28.38;101214.75;5053022;28;73019;-78
2023/06/14 10:39:02;;;;;;;;;;;;;;;;;;;;;
2023/06/14 10:41:33;;;;;;;;;13.67;13.33;;;;;31.64;27.95;101197.13;4977090;28;69246;-78
2023/06/14 10:45:05;;;;;;;;;10.00;9.00;;;;;31.52;28.64;101165.88;4979291;28;45453;-79
2023/06/14 10:48:02;;;;;;;;;11.67;10.67;;;;;31.80;29.14;101172.19;4956676;28;46231;-79
2023/06/14 10:50:36;;;;;;;;;12.33;10.67;;;;;31.96;31.30;101182.81;4956208;28;45651;-79
2023/06/14 10:53:25;;;;;;;;;11.00;11.00;;;;;32.19;27.38;101188.00;4957737;28;45543;-79
2023/06/14 10:56:32;;;;;;;;;9.67;9.67;;;;;32.31;27.62;101232.06;4960049;28;45467;-79
2023/06/14 10:59:04;;;;;;;;;11.67;9.67;;;;;32.40;28.92;101236.31;4951251;28;45549;-79
2023/06/14 11:02:26;;;;;;;;;11.67;9.33;;;;;32.01;28.69;101154.81;4963125;28;45351;-79
2023/06/14 11:05:28;;;;;;;;;13.33;11.67;;;;;32.16;28.28;101166.50;4936536;28;46502;-79
2023/06/14 11:08:51;;;;;;;;;;;;;;;;;;;;;
2023/06/14 11:11:38;;;;;;;;;12.33;12.33;;;;;32.32;25.67;101231.03;5061426;28;75393;-79
2023/06/14 11:14:14;;;;;;;;;11.67;11.67;;;;;31.75;24.98;101141.00;5059281;28;45325;-79
2023/06/14 11:17:20;;;;;;;;;;;;;;;;;;;;;
2023/06/14 11:19:48;;;;;;;;;11.00;11.00;;;;;31.95;26.53;101194.78;5056252;28;46764;-78
2023/06/14 11:22:59;;;;;;;;;14.00;14.00;;;;;32.01;27.68;101185.75;5059735;28;46021;-78
2023/06/14 11:26:15;;;;;;;;;11.00;10.67;;;;;32.28;24.72;101213.31;5051316;28;45441;-79
2023/06/14 11:35:30;;;;;;;;;13.00;11.67;;;;;32.36;25.61;101213.97;5055490;28;46123;-79
2023/06/14 11:38:19;;;;;;;;;12.33;12.00;;;;;32.62;24.57;101232.44;5017649;28;45535;-78
2023/06/14 11:41:27;;;;;;;;;11.00;10.67;;;;;32.74;25.47;101218.97;5076474;28;45299;-78
2023/06/14 11:43:47;;;;;;;;;14.67;11.67;;;;;32.56;28.51;101192.13;5065080;28;45341;-78
2023/06/14 11:46:16;;;;;;;;;11.33;10.33;;;;;32.67;24.89;101210.75;5050521;28;46948;-78
2023/06/14 11:49:02;;;;;;;;;11.67;11.67;;;;;32.72;27.74;101208.25;5072104;28;45378;-79
2023/06/14 11:51:57;;;;;;;;;;;;;;;;;;;;;
2023/06/14 11:54:48;;;;;;;;;12.00;12.00;;;;;32.48;27.39;101141.13;5082468;28;73013;-78
2023/06/14 11:57:32;;;;;;;;;;;;;;;;;;;;;
2023/06/14 11:59:58;;;;;;;;;9.67;8.33;;;;;32.78;26.79;101160.81;5017216;28;74020;-79
2023/06/14 12:03:07;;;;;;;;;11.00;11.00;;;;;32.69;25.71;101128.34;5060193;28;45390;-79
2023/06/14 12:05:36;;;;;;;;;13.33;12.33;;;;;32.79;27.27;101151.53;5038747;28;45610;-78
2023/06/14 12:08:48;;;;;;;;;;;;;;;;;;;;;
2023/06/14 12:11:20;;;;;;;;;11.67;11.67;;;;;33.01;26.37;101177.72;5050039;28;73977;-79
2023/06/14 12:13:45;;;;;;;;;10.67;10.67;;;;;33.13;29.21;101174.38;5051521;28;45766;-79
2023/06/14 12:16:30;;;;;;;;;12.00;12.00;;;;;33.14;26.04;101154.13;5041374;28;45332;-79
2023/06/14 12:18:56;;;;;;;;;13.33;11.33;;;;;33.31;27.43;101167.19;5051807;28;45389;-79
2023/06/14 12:21:22;;;;;;;;;13.67;13.00;;;;;33.29;27.39;101152.84;5072060;28;45362;-79
2023/06/14 12:23:58;;;;;;;;;11.00;9.00;;;;;33.42;29.20;101162.97;5076708;28;45244;-79
2023/06/14 12:26:29;;;;;;;;;11.00;11.00;;;;;33.54;28.98;101134.66;5076185;28;45474;-79
2023/06/14 12:28:56;;;;;;;;;12.33;12.33;;;;;33.74;24.80;101144.78;5044608;28;45555;-79
2023/06/14 12:34:28;;;;;;;;;13.00;13.00;;;;;32.59;25.79;101142.47;5034687;28;45298;-80
2023/06/14 12:37:03;;;;;;;;;14.33;12.33;;;;;32.53;28.26;101167.06;5066278;28;45408;-79